Time;durP1;ratioP1;P1;durP2;ratioP2;P2;SDS_P1;SDS_P2;PMS_P1;PMS_P2;Temp;Humidity;BMP_temperature;BMP_pressure;BME280_temperature;BME280_humidity;BME280_pressure;Samples;Min_cycle;Max_cycle;Signal;HPM_P1;HPM_P2
2021/08/04 00:01:19;;;;;;;3.38;2.13;;;16.00;92.80;;;16.24;69.49;97450.53;4892274;29;20267;-36
2021/08/04 00:03:47;;;;;;;3.28;2.15;;;16.00;92.60;;;16.21;69.29;97459.00;4890052;29;20056;-36
2021/08/04 00:06:33;;;;;;;3.72;2.22;;;16.00;92.90;;;16.20;69.70;97454.66;4890238;29;20066;-36
2021/08/04 00:09:02;;;;;;;2.83;1.80;;;15.90;93.10;;;16.21;69.71;97459.00;4891203;29;20064;-36
2021/08/04 00:11:30;;;;;;;2.47;1.85;;;16.00;93.00;;;16.22;69.80;97452.59;4889804;29;20064;-36
2021/08/04 00:13:59;;;;;;;2.13;1.65;;;16.00;92.90;;;16.23;69.62;97450.75;4889993;29;20240;-36
2021/08/04 00:16:27;;;;;;;2.75;2.10;;;16.00;93.00;;;16.23;69.70;97454.25;4891029;29;20053;-36
2021/08/04 00:18:55;;;;;;;3.58;2.00;;;16.00;93.10;;;16.23;69.58;97440.84;4891415;29;20053;-36
2021/08/04 00:21:24;;;;;;;4.78;2.03;;;16.00;92.70;;;16.20;69.70;97435.84;4890179;29;20056;-36
2021/08/04 00:23:52;;;;;;;2.25;2.05;;;15.90;93.10;;;16.18;69.68;97439.78;4891360;29;20068;-36
2021/08/04 00:26:20;;;;;;;4.70;2.05;;;15.90;93.20;;;16.17;69.58;97432.75;4890757;29;20275;-36
2021/08/04 00:28:48;;;;;;;4.07;1.90;;;15.90;93.10;;;16.18;69.71;97429.03;4890601;29;20061;-36
2021/08/04 00:31:16;;;;;;;3.35;2.08;;;15.90;94.00;;;16.16;69.86;97431.09;4892302;29;20363;-36
2021/08/04 00:33:44;;;;;;;2.38;1.80;;;15.90;93.00;;;16.10;69.93;97432.72;4890313;29;20176;-36
2021/08/04 00:36:12;;;;;;;3.85;2.15;;;15.90;93.30;;;16.05;69.98;97433.34;4888413;29;20243;-36
2021/08/04 00:38:41;;;;;;;2.83;1.80;;;15.80;93.20;;;16.06;69.90;97443.03;4891088;29;20296;-36
2021/08/04 00:41:09;;;;;;;2.42;1.88;;;15.80;93.30;;;16.04;69.84;97439.72;4891019;29;20044;-36
2021/08/04 00:43:37;;;;;;;3.08;1.77;;;15.80;93.30;;;16.05;69.99;97441.41;4889719;29;20348;-36
2021/08/04 00:46:05;;;;;;;2.33;1.70;;;15.90;93.10;;;16.04;70.05;97434.38;4890714;29;20246;-36
2021/08/04 00:48:33;;;;;;;2.85;1.67;;;15.80;93.10;;;16.04;69.85;97441.59;4888580;29;20266;-36
2021/08/04 00:51:01;;;;;;;2.40;1.70;;;15.80;92.90;;;16.02;69.90;97452.53;4888943;29;20076;-36
2021/08/04 00:53:30;;;;;;;2.90;1.80;;;15.80;92.90;;;16.02;69.85;97447.16;4890185;29;20075;-36
2021/08/04 00:56:00;;;;;;;3.85;2.20;;;15.90;92.60;;;16.02;69.58;97447.16;4887112;29;20060;-36
2021/08/04 00:58:33;;;;;;;2.67;1.52;;;15.80;92.40;;;16.02;69.80;97441.78;4889223;29;20071;-36
2021/08/04 01:01:27;;;;;;;2.35;1.40;;;15.90;92.70;;;16.03;69.78;97446.16;4891438;29;20052;-36
2021/08/04 01:04:09;;;;;;;3.58;1.83;;;15.90;92.70;;;16.04;69.61;97439.72;4888800;29;20056;-36
2021/08/04 01:07:05;;;;;;;2.35;1.95;;;16.00;92.50;;;16.07;69.66;97438.50;4890365;29;20247;-36
2021/08/04 01:09:55;;;;;;;3.53;1.70;;;15.90;92.20;;;16.05;69.51;97436.03;4887498;29;20060;-36
2021/08/04 01:12:33;;;;;;;4.05;1.95;;;15.90;92.30;;;16.04;69.45;97429.00;4888763;29;20068;-36
2021/08/04 01:15:05;;;;;;;2.72;1.88;;;15.90;92.20;;;16.06;69.72;97423.44;4873352;29;20078;-36
2021/08/04 01:17:36;;;;;;;4.03;2.03;;;15.90;92.10;;;16.06;69.55;97426.94;4888661;29;20051;-36
2021/08/04 01:20:26;;;;;;;2.42;1.63;;;15.80;92.10;;;16.04;69.42;97429.00;4888204;29;20061;-36
2021/08/04 01:23:06;;;;;;;4.53;1.85;;;15.90;92.20;;;16.06;69.62;97429.63;4871813;29;20052;-36
2021/08/04 01:25:58;;;;;;;4.68;1.80;;;15.90;92.10;;;16.10;69.31;97422.00;4890001;29;20075;-36
2021/08/04 01:28:37;;;;;;;3.58;1.75;;;15.90;92.20;;;16.14;69.63;97431.28;4888039;29;20071;-36
2021/08/04 01:31:10;;;;;;;4.13;2.08;;;15.90;92.00;;;16.17;69.36;97430.06;4888006;29;20066;-36
2021/08/04 01:33:43;;;;;;;2.25;1.63;;;16.00;92.00;;;16.17;69.44;97432.75;4890466;29;20064;-36
2021/08/04 01:36:12;;;;;;;2.67;1.88;;;16.00;92.90;;;16.18;69.40;97426.34;4888409;29;20058;-36
2021/08/04 01:38:42;;;;;;;3.53;2.03;;;16.00;92.20;;;16.14;69.38;97429.44;4872812;29;20079;-36
2021/08/04 01:41:13;;;;;;;3.45;2.13;;;15.90;92.30;;;16.08;69.21;97432.09;4890050;29;20355;-36
2021/08/04 01:43:42;;;;;;;6.13;2.33;;;15.80;92.80;;;16.06;69.33;97431.47;4886929;29;20071;-36
2021/08/04 01:46:13;;;;;;;2.53;1.70;;;15.80;93.00;;;16.07;69.58;97438.50;4890929;29;20052;-36
2021/08/04 01:48:43;;;;;;;5.05;2.90;;;15.80;93.10;;;16.07;69.67;97430.44;4875600;29;20390;-36
2021/08/04 01:51:13;;;;;;;4.78;2.22;;;15.80;93.30;;;16.01;69.83;97431.25;4886168;29;20057;-36
2021/08/04 01:53:44;;;;;;;5.45;2.40;;;15.70;93.70;;;15.97;69.98;97425.44;4875519;29;20063;-36
2021/08/04 01:56:14;;;;;;;2.78;1.88;;;15.70;93.80;;;15.99;69.76;97431.44;4860660;29;20060;-36
2021/08/04 01:58:44;;;;;;;3.47;2.28;;;15.70;93.60;;;16.01;69.86;97432.06;4873429;29;20061;-36
2021/08/04 02:01:12;;;;;;;3.38;1.88;;;15.80;93.50;;;16.03;69.85;97435.41;4874335;29;20288;-36
2021/08/04 02:03:40;;;;;;;4.05;1.92;;;15.80;93.10;;;16.05;69.78;97427.13;4873714;29;20052;-36
2021/08/04 02:06:23;;;;;;;4.22;2.00;;;15.80;93.00;;;16.02;69.60;97416.81;4874146;29;20055;-36
2021/08/04 02:09:32;;;;;;;3.10;2.28;;;15.80;93.20;;;16.00;69.52;97426.91;4874366;29;20065;-36
2021/08/04 02:12:10;;;;;;;3.67;2.35;;;15.80;93.30;;;15.98;69.32;97424.44;4874432;29;20588;-36
2021/08/04 02:15:04;;;;;;;3.85;2.03;;;15.70;93.50;;;15.95;69.49;97424.81;4874603;29;20412;-36
2021/08/04 02:17:44;;;;;;;2.88;2.08;;;15.70;93.00;;;15.93;69.81;97433.06;4871194;29;20075;-36
2021/08/04 02:20:28;;;;;;;3.33;2.08;;;15.60;93.20;;;15.91;69.43;97429.75;4856980;29;20068;-36
2021/08/04 02:23:12;;;;;;;;;;;15.70;94.00;;;15.84;69.42;97433.44;4873626;29;20065;-36
2021/08/04 02:25:58;;;;;;;2.83;1.80;;;15.60;93.70;;;15.85;69.70;97427.88;4874563;29;20263;-36
2021/08/04 02:28:37;;;;;;;6.50;2.17;;;15.60;93.60;;;15.85;69.75;97430.56;4874295;29;20053;-36
2021/08/04 02:31:09;;;;;;;3.15;1.77;;;15.60;93.40;;;15.85;69.74;97421.69;4872763;29;20055;-36
2021/08/04 02:33:37;;;;;;;3.63;2.40;;;15.60;93.10;;;15.80;69.77;97427.66;4874141;29;20044;-36
2021/08/04 02:36:06;;;;;;;6.97;2.05;;;15.50;93.10;;;15.79;69.78;97422.50;4875542;29;20053;-36
2021/08/04 02:38:34;;;;;;;6.50;2.20;;;15.50;93.20;;;15.78;69.90;97421.69;4871777;29;20351;-35
2021/08/04 02:41:02;;;;;;;2.90;1.92;;;15.50;93.20;;;15.80;69.88;97419.63;4874324;29;20068;-35
2021/08/04 02:43:32;;;;;;;3.42;2.13;;;15.60;93.00;;;15.83;69.74;97421.06;4871116;29;20370;-35
2021/08/04 02:46:00;;;;;;;3.67;2.65;;;15.60;92.70;;;15.83;69.76;97416.50;4874839;29;20355;-35
2021/08/04 02:48:29;;;;;;;4.18;2.25;;;15.60;92.70;;;15.83;69.77;97415.69;4872538;29;20057;-35
2021/08/04 02:51:10;;;;;;;3.95;2.25;;;15.60;92.60;;;15.78;69.63;97413.63;4856660;29;20075;-36
2021/08/04 02:53:38;;;;;;;4.30;2.05;;;15.50;92.80;;;15.78;69.75;97415.47;4875054;29;20052;-35
2021/08/04 02:56:06;;;;;;;3.40;1.70;;;15.50;93.10;;;15.75;69.81;97401.41;4872685;29;20390;-35
2021/08/04 02:58:37;;;;;;;4.05;1.88;;;15.50;93.00;;;15.75;69.99;97408.63;4871351;29;20056;-35
2021/08/04 03:01:06;;;;;;;2.85;2.15;;;15.50;93.00;;;15.75;69.83;97414.81;4872110;29;20071;-35
2021/08/04 03:03:35;;;;;;;2.75;2.10;;;15.50;92.90;;;15.77;69.75;97409.28;4873932;29;20072;-35
2021/08/04 03:06:03;;;;;;;3.30;2.20;;;15.50;92.80;;;15.79;69.38;97398.34;4872540;29;20060;-35
2021/08/04 03:08:31;;;;;;;3.45;2.10;;;15.50;92.00;;;15.81;69.37;97407.84;4871608;29;20142;-35
2021/08/04 03:10:59;;;;;;;2.65;1.90;;;15.60;91.70;;;15.84;69.09;97401.22;4873475;29;20059;-35
2021/08/04 03:13:28;;;;;;;2.83;1.90;;;15.60;91.40;;;15.82;69.05;97408.66;4872532;29;20501;-36
2021/08/04 03:15:56;;;;;;;4.38;2.03;;;15.60;91.30;;;15.78;69.15;97405.56;4874343;29;20057;-35
2021/08/04 03:18:24;;;;;;;2.30;1.58;;;15.60;91.20;;;15.79;69.19;97404.53;4873560;29;20059;-35
2021/08/04 03:20:52;;;;;;;2.55;1.73;;;15.60;91.00;;;15.83;69.08;97405.78;4871468;29;20067;-35
2021/08/04 03:23:20;;;;;;;4.40;2.05;;;15.60;90.80;;;15.83;69.05;97403.09;4873691;29;20057;-36
2021/08/04 03:25:48;;;;;;;2.65;1.90;;;15.60;90.50;;;15.86;69.08;97407.25;4872995;29;20224;-35
2021/08/04 03:28:16;;;;;;;2.80;1.73;;;15.60;90.40;;;15.87;69.02;97411.56;4873243;29;20049;-35
2021/08/04 03:30:44;;;;;;;2.53;1.63;;;15.60;90.50;;;15.87;69.02;97415.09;4873285;29;20068;-36
2021/08/04 03:33:13;;;;;;;3.20;2.00;;;15.60;90.50;;;15.85;69.00;97411.78;4873207;29;20373;-36
2021/08/04 03:35:41;;;;;;;6.10;1.90;;;15.60;90.50;;;15.85;68.86;97413.63;4873787;29;20482;-37
2021/08/04 03:38:08;;;;;;;3.10;2.03;;;15.60;90.30;;;15.84;68.77;97409.28;4872280;29;20444;-36
2021/08/04 03:40:36;;;;;;;2.85;1.75;;;15.60;90.40;;;15.83;68.82;97404.97;4873029;29;20056;-37
2021/08/04 03:43:04;;;;;;;3.20;2.20;;;15.60;90.30;;;15.81;68.81;97418.56;4872086;29;20063;-37
2021/08/04 03:45:32;;;;;;;3.03;1.63;;;15.50;90.50;;;15.79;68.80;97420.63;4873697;29;20061;-37
2021/08/04 03:48:01;;;;;;;3.30;1.75;;;15.60;90.70;;;15.78;68.70;97421.69;4873180;29;20055;-36
2021/08/04 03:50:28;;;;;;;2.63;1.98;;;15.60;90.90;;;15.81;69.01;97413.19;4872636;29;20382;-37
2021/08/04 03:52:57;;;;;;;3.08;2.00;;;15.60;90.60;;;15.84;68.94;97410.13;4874217;29;20063;-37
2021/08/04 03:55:26;;;;;;;3.60;1.92;;;15.60;90.50;;;15.85;68.47;97410.94;4872773;29;20069;-36
2021/08/04 03:57:53;;;;;;;2.75;2.10;;;15.60;90.40;;;15.81;68.61;97412.38;4871678;29;20080;-36
2021/08/04 04:00:21;;;;;;;2.92;1.88;;;15.60;90.30;;;15.80;68.56;97416.94;4872345;29;20065;-36
2021/08/04 04:02:49;;;;;;;3.08;2.10;;;15.60;90.50;;;15.75;68.51;97422.88;4872185;29;20053;-36
2021/08/04 04:05:18;;;;;;;2.75;2.17;;;15.50;90.60;;;15.72;68.81;97417.03;4871801;29;20267;-36
2021/08/04 04:07:46;;;;;;;4.43;2.60;;;15.50;90.70;;;15.68;68.74;97419.31;4872859;29;20370;-36
2021/08/04 04:10:14;;;;;;;3.85;2.03;;;15.40;90.80;;;15.65;68.79;97417.03;4871979;29;20279;-37
2021/08/04 04:12:42;;;;;;;4.43;2.28;;;15.30;91.00;;;15.64;68.76;97409.16;4872769;29;20079;-37
2021/08/04 04:15:11;;;;;;;5.75;2.28;;;15.30;91.00;;;15.60;68.91;97416.78;4873858;29;20053;-37
2021/08/04 04:17:39;;;;;;;6.18;2.70;;;15.30;91.30;;;15.58;68.97;97418.84;4873614;29;20501;-37
2021/08/04 04:20:11;;;;;;;5.60;2.17;;;15.30;91.60;;;15.56;68.84;97420.91;4872291;29;20067;-37
2021/08/04 04:22:44;;;;;;;3.85;2.22;;;15.30;91.60;;;15.50;68.90;97414.47;4872625;29;20111;-36
2021/08/04 04:25:16;;;;;;;;;;;15.20;91.50;;;15.42;68.75;97420.00;4874093;29;20049;-37
2021/08/04 04:27:45;;;;;;;5.60;2.30;;;15.10;92.20;;;15.40;69.04;97423.91;4873646;29;19920;-36
2021/08/04 04:30:13;;;;;;;6.10;2.75;;;15.10;92.20;;;15.38;69.12;97420.59;4871552;29;20073;-36
2021/08/04 04:32:41;;;;;;;4.30;1.92;;;15.10;92.30;;;15.36;69.44;97423.47;4870533;29;20063;-36
2021/08/04 04:35:10;;;;;;;6.53;1.88;;;15.10;92.50;;;15.38;69.26;97421.44;4872890;29;20051;-36
2021/08/04 04:37:38;;;;;;;4.30;2.03;;;15.10;92.30;;;15.36;69.13;97418.94;4871593;29;20063;-36
2021/08/04 04:40:07;;;;;;;4.40;2.30;;;15.10;91.90;;;15.34;69.31;97426.34;4873660;29;20362;-36
2021/08/04 04:42:35;;;;;;;3.85;2.00;;;15.10;92.20;;;15.35;69.22;97430.69;4871229;29;20055;-36
2021/08/04 04:45:04;;;;;;;3.35;2.00;;;15.10;92.20;;;15.34;69.44;97425.53;4870366;29;20061;-36
2021/08/04 04:47:31;;;;;;;3.65;2.03;;;15.10;92.00;;;15.35;69.29;97421.81;4871950;29;20255;-37
2021/08/04 04:49:59;;;;;;;3.60;2.10;;;15.10;91.80;;;15.40;69.25;97423.91;4872025;29;20240;-36
2021/08/04 04:52:27;;;;;;;3.08;2.30;;;15.20;91.20;;;15.45;69.05;97422.31;4869578;29;20065;-37
2021/08/04 04:54:55;;;;;;;4.57;2.35;;;15.20;90.60;;;15.47;68.73;97420.25;4873210;29;20092;-36
2021/08/04 04:57:23;;;;;;;2.13;1.80;;;15.30;90.40;;;15.50;68.73;97429.75;4873578;29;20063;-36
2021/08/04 04:59:51;;;;;;;2.33;1.83;;;15.30;90.00;;;15.52;68.73;97425.00;4872033;29;20305;-36
2021/08/04 05:02:18;;;;;;;6.22;2.33;;;15.30;89.50;;;15.55;68.38;97427.31;4870610;29;20053;-36
2021/08/04 05:04:46;;;;;;;5.40;2.40;;;15.40;89.30;;;15.59;68.30;97428.56;4871130;29;20500;-37
2021/08/04 05:07:14;;;;;;;2.95;2.05;;;15.40;89.00;;;15.65;68.29;97433.13;4871275;29;20060;-36
2021/08/04 05:09:42;;;;;;;3.58;2.15;;;15.50;88.70;;;15.70;68.25;97433.38;4870118;29;20061;-36
2021/08/04 05:12:10;;;;;;;4.22;1.92;;;15.60;88.40;;;15.78;68.14;97428.88;4872253;29;20057;-36
2021/08/04 05:14:40;;;;;;;3.50;2.17;;;15.70;88.20;;;15.83;67.80;97427.25;4874546;29;20344;-36
2021/08/04 05:17:13;;;;;;;3.47;2.47;;;15.80;87.30;;;15.87;67.51;97439.25;4871003;29;20561;-36
2021/08/04 05:19:42;;;;;;;2.95;1.77;;;15.80;87.00;;;15.89;67.57;97447.09;4868915;29;20061;-36
2021/08/04 05:22:09;;;;;;;2.65;1.98;;;15.80;86.60;;;15.90;67.42;97438.84;4868621;29;20258;-36
2021/08/04 05:24:37;;;;;;;2.58;2.03;;;15.80;87.20;;;15.95;67.60;97446.28;4870925;29;20337;-36
2021/08/04 05:27:05;;;;;;;2.33;1.85;;;15.90;87.40;;;16.01;67.67;97452.72;4871571;29;20065;-36
2021/08/04 05:29:33;;;;;;;3.47;1.80;;;15.90;87.30;;;16.02;67.56;97444.47;4869994;29;20267;-36
2021/08/04 05:32:02;;;;;;;5.93;2.38;;;15.90;87.10;;;16.04;67.48;97450.47;4871368;29;20061;-36
2021/08/04 05:34:33;;;;;;;5.82;2.22;;;16.00;86.80;;;16.06;67.41;97444.91;4872190;29;20057;-36
2021/08/04 05:37:01;;;;;;;2.97;2.20;;;16.00;87.00;;;16.04;67.17;97453.16;4871986;29;20276;-36
2021/08/04 05:39:29;;;;;;;3.42;2.58;;;15.90;86.70;;;16.03;67.20;97448.84;4871116;29;20055;-36
2021/08/04 05:41:57;;;;;;;5.10;2.10;;;16.00;86.60;;;16.06;67.18;97447.59;4871240;29;20049;-36
2021/08/04 05:44:25;;;;;;;3.15;2.08;;;15.90;86.70;;;16.05;67.14;97456.66;4869682;29;20351;-36
2021/08/04 05:46:52;;;;;;;8.00;2.55;;;15.90;87.20;;;16.10;67.27;97455.03;4871534;29;20416;-36
2021/08/04 05:49:21;;;;;;;3.78;2.22;;;16.00;87.10;;;16.11;67.23;97445.97;4872044;29;20061;-36
2021/08/04 05:51:51;;;;;;;2.72;2.15;;;16.00;87.10;;;16.13;67.44;97449.28;4871303;29;20056;-36
2021/08/04 05:54:19;;;;;;;2.95;2.00;;;16.00;87.20;;;16.14;67.47;97447.41;4870141;29;20067;-36
2021/08/04 05:56:48;;;;;;;4.43;2.08;;;16.10;87.50;;;16.16;67.53;97450.72;4868979;29;20365;-36
2021/08/04 05:59:15;;;;;;;5.25;2.38;;;16.10;87.70;;;16.20;67.66;97451.97;4870569;29;20080;-36
2021/08/04 06:01:43;;;;;;;4.28;2.28;;;16.20;87.70;;;16.26;67.41;97437.72;4870215;29;20263;-36
2021/08/04 06:04:11;;;;;;;4.35;2.05;;;16.30;87.50;;;16.31;67.55;97437.94;4870074;29;20056;-36
2021/08/04 06:06:39;;;;;;;2.97;2.00;;;16.30;87.00;;;16.32;67.29;97439.63;4869423;29;20073;-36
2021/08/04 06:09:07;;;;;;;3.28;2.22;;;16.30;86.80;;;16.35;67.09;97435.69;4871516;29;20081;-36
2021/08/04 06:11:35;;;;;;;4.32;2.90;;;16.30;86.80;;;16.38;67.14;97440.69;4871871;29;20079;-36
2021/08/04 06:14:03;;;;;;;3.22;1.90;;;16.40;86.10;;;16.42;66.73;97444.59;4871413;29;20057;-36
2021/08/04 06:16:31;;;;;;;3.97;2.55;;;16.40;85.90;;;16.46;66.56;97429.72;4868935;29;20518;-36
2021/08/04 06:18:59;;;;;;;3.33;2.13;;;16.40;85.30;;;16.48;66.46;97443.78;4872852;29;20071;-35
2021/08/04 06:21:27;;;;;;;3.33;1.83;;;16.40;85.10;;;16.50;66.26;97440.91;4871597;29;20210;-34
2021/08/04 06:23:55;;;;;;;5.55;2.00;;;16.50;85.20;;;16.50;66.22;97436.34;4870837;29;20240;-35
2021/08/04 06:26:23;;;;;;;3.97;2.25;;;16.40;84.70;;;16.52;65.95;97438.84;4870510;29;20056;-35
2021/08/04 06:28:51;;;;;;;2.72;2.10;;;16.40;84.40;;;16.56;66.10;97441.94;4871552;29;20064;-35
2021/08/04 06:31:19;;;;;;;4.45;2.45;;;16.50;84.90;;;16.59;65.86;97442.34;4870594;29;20065;-36
2021/08/04 06:33:46;;;;;;;5.40;2.03;;;16.60;84.70;;;16.62;66.00;97446.50;4872986;29;20552;-35
2021/08/04 06:36:14;;;;;;;3.00;2.17;;;16.60;84.40;;;16.60;64.83;97441.31;4874470;29;20574;-36
2021/08/04 06:38:42;;;;;;;2.83;2.17;;;16.60;82.40;;;16.59;64.45;97442.34;4873300;29;20065;-36
2021/08/04 06:41:10;;;;;;;3.15;1.77;;;16.50;81.50;;;16.59;64.20;97450.41;4873163;29;20060;-35
2021/08/04 06:43:38;;;;;;;2.63;1.98;;;16.60;81.40;;;16.65;64.30;97465.75;4873377;29;20154;-42
2021/08/04 06:46:11;;;;;;;2.75;1.75;;;16.60;81.10;;;16.65;63.82;97467.56;4873424;29;20247;-35
2021/08/04 06:48:43;;;;;;;2.90;1.92;;;16.70;80.20;;;16.70;63.77;97465.13;4872606;29;20060;-37
2021/08/04 06:51:14;;;;;;;3.35;2.67;;;16.70;80.70;;;16.73;62.95;97468.22;4873547;29;20363;-35
2021/08/04 06:53:42;;;;;;;4.15;2.30;;;16.80;79.30;;;16.78;63.02;97458.72;4873992;29;20068;-36
2021/08/04 06:56:10;;;;;;;2.67;1.98;;;16.80;79.10;;;16.82;62.69;97460.00;4875872;29;20071;-36
2021/08/04 06:58:38;;;;;;;3.78;2.20;;;16.90;79.00;;;16.82;62.48;97458.13;4872267;29;20057;-36
2021/08/04 07:01:06;;;;;;;2.58;1.75;;;16.90;78.50;;;16.84;61.80;97463.28;4872662;29;20267;-36
2021/08/04 07:03:38;;;;;;;3.35;2.10;;;16.90;77.10;;;16.89;62.17;97468.91;4873253;29;20053;-35
2021/08/04 07:06:08;;;;;;;2.88;2.30;;;16.90;78.10;;;16.92;62.22;97455.03;4876226;29;20063;-35
2021/08/04 07:08:38;;;;;;;2.83;1.73;;;17.00;78.20;;;17.00;61.69;97462.06;4872598;29;20067;-35
2021/08/04 07:11:07;;;;;;;4.00;1.80;;;17.10;77.20;;;16.97;61.42;97463.31;4874587;29;20236;-36
2021/08/04 07:13:35;;;;;;;4.38;2.67;;;17.10;76.50;;;17.00;61.75;97459.38;4873063;29;20239;-36
2021/08/04 07:16:03;;;;;;;3.60;1.83;;;17.10;77.20;;;17.00;61.53;97460.22;4871731;29;20063;-35
2021/08/04 07:18:31;;;;;;;3.72;2.28;;;17.10;77.70;;;17.07;61.72;97463.72;4872524;29;20061;-36
2021/08/04 07:20:59;;;;;;;4.50;2.20;;;17.20;76.30;;;17.13;61.29;97467.44;4872921;29;20064;-35
2021/08/04 07:23:27;;;;;;;2.33;1.80;;;17.30;77.30;;;17.20;61.53;97462.91;4873058;29;20359;-36
2021/08/04 07:25:55;;;;;;;3.72;2.33;;;17.40;76.10;;;17.23;61.39;97465.16;4873395;29;20393;-36
2021/08/04 07:28:23;;;;;;;3.35;2.17;;;17.40;77.00;;;17.29;61.47;97466.19;4873013;29;20059;-36
2021/08/04 07:30:52;;;;;;;3.10;1.95;;;17.40;77.30;;;17.30;61.36;97465.16;4871837;29;20367;-36
2021/08/04 07:33:20;;;;;;;4.80;2.17;;;17.50;76.90;;;17.34;60.57;97466.41;4874011;29;20063;-36
2021/08/04 07:35:48;;;;;;;3.50;2.10;;;17.50;75.60;;;17.41;60.80;97466.38;4874773;29;20065;-36
2021/08/04 07:38:16;;;;;;;3.40;2.30;;;17.60;75.60;;;17.45;60.74;97460.38;4872724;29;20063;-36
2021/08/04 07:40:43;;;;;;;3.67;2.20;;;17.60;75.60;;;17.54;59.93;97457.47;4873961;29;20254;-36
2021/08/04 07:43:11;;;;;;;4.13;2.20;;;17.70;75.00;;;17.58;59.64;97456.00;4873355;29;20063;-36
2021/08/04 07:45:39;;;;;;;3.70;2.30;;;17.70;74.50;;;17.54;59.04;97466.34;4870831;29;20067;-35
2021/08/04 07:48:07;;;;;;;2.95;2.17;;;17.60;73.90;;;17.62;59.39;97460.78;4872400;29;20053;-36
2021/08/04 07:50:36;;;;;;;3.50;1.65;;;17.80;74.10;;;17.66;59.72;97474.63;4872344;29;20057;-36
2021/08/04 07:53:04;;;;;;;2.38;2.00;;;17.80;74.50;;;17.59;59.10;97471.94;4873503;29;20131;-36
2021/08/04 07:55:32;;;;;;;3.15;2.33;;;17.70;73.00;;;17.63;59.47;97472.38;4870906;29;20065;-36
2021/08/04 07:58:00;;;;;;;2.78;1.80;;;17.70;75.00;;;17.64;58.78;97471.31;4872872;29;20056;-35
2021/08/04 08:00:27;;;;;;;3.45;1.60;;;17.70;73.70;;;17.48;59.68;97461.81;4877052;29;20263;-35
2021/08/04 08:02:56;;;;;;;2.58;1.80;;;17.60;75.80;;;17.43;60.19;97461.66;4879422;29;20053;-36
2021/08/04 08:05:25;;;;;;;3.00;2.70;;;17.50;76.00;;;17.41;59.89;97459.16;4888159;29;20219;-36
2021/08/04 08:07:53;;;;;;;4.15;2.30;;;17.40;75.60;;;17.50;60.01;97457.06;4880466;29;20353;-36
2021/08/04 08:10:25;;;;;;;3.00;2.00;;;17.60;75.20;;;17.54;60.01;97457.47;4880172;29;20045;-35
2021/08/04 08:12:52;;;;;;;2.70;2.17;;;17.70;75.20;;;17.49;59.35;97448.16;4879236;29;20059;-35
2021/08/04 08:15:21;;;;;;;3.08;1.95;;;17.60;74.60;;;17.51;59.61;97439.88;4878362;29;20053;-36
2021/08/04 08:17:49;;;;;;;3.40;2.05;;;17.60;74.70;;;17.65;59.57;97438.81;4873126;29;20061;-35
2021/08/04 08:20:19;;;;;;;2.65;1.90;;;17.80;74.60;;;17.74;59.32;97442.09;4872030;29;20067;-36
2021/08/04 08:22:49;;;;;;;4.32;2.17;;;17.90;73.90;;;17.87;59.39;97450.19;4872931;29;20060;-36
2021/08/04 08:25:18;;;;;;;3.50;1.95;;;18.10;74.60;;;17.98;59.55;97455.94;4869822;29;20244;-36
2021/08/04 08:27:46;;;;;;;3.97;2.10;;;18.30;74.10;;;17.73;57.65;97453.91;4871521;29;20057;-36
2021/08/04 08:30:14;;;;;;;2.60;1.90;;;18.00;70.30;;;17.79;57.66;97450.34;4870688;29;20056;-36
2021/08/04 08:32:46;;;;;;;3.53;2.28;;;17.90;71.30;;;17.73;58.06;97448.50;4871765;29;20060;-36
2021/08/04 08:35:14;;;;;;;2.92;2.22;;;17.80;73.00;;;17.84;58.38;97455.97;4872724;29;20053;-36
2021/08/04 08:37:45;;;;;;;2.53;1.80;;;18.00;73.10;;;17.92;58.42;97457.59;4873063;29;20239;-36
2021/08/04 08:40:15;;;;;;;2.85;2.25;;;18.10;73.00;;;18.01;58.16;97460.88;4871588;29;20064;-36
2021/08/04 08:42:44;;;;;;;4.00;2.20;;;18.20;72.40;;;18.07;58.02;97471.63;4872714;29;20407;-36
2021/08/04 08:45:14;;;;;;;3.60;2.40;;;18.30;72.10;;;18.12;57.76;97462.91;4870877;29;20057;-36
2021/08/04 08:47:44;;;;;;;3.45;2.03;;;18.30;71.20;;;18.15;57.88;97458.97;4871138;29;20250;-35
2021/08/04 08:50:22;;;;;;;;;;;18.30;72.30;;;18.05;56.85;97459.44;4872918;29;20057;-35
2021/08/04 08:52:50;;;;;;;3.08;1.92;;;18.30;70.10;;;18.08;57.25;97457.13;4872169;29;19928;-35
2021/08/04 08:55:18;;;;;;;2.75;2.00;;;18.10;71.90;;;18.06;57.69;97451.13;4870073;29;20244;-36
2021/08/04 08:57:46;;;;;;;4.88;2.25;;;18.20;72.50;;;18.06;57.43;97456.50;4871465;29;20053;-35
2021/08/04 09:00:15;;;;;;;3.50;2.00;;;18.20;71.00;;;18.07;57.27;97447.41;4871343;29;20060;-35
2021/08/04 09:02:44;;;;;;;2.95;2.58;;;18.20;70.80;;;18.18;57.55;97450.44;4872546;29;20069;-36
2021/08/04 09:05:16;;;;;;;2.65;1.80;;;18.30;72.40;;;18.26;57.42;97448.34;4870444;29;20051;-35
2021/08/04 09:07:47;;;;;;;2.30;2.10;;;18.40;71.50;;;18.30;56.94;97440.66;4872792;29;20075;-35
2021/08/04 09:10:31;;;;;;;4.50;2.53;;;18.50;71.10;;;18.37;56.48;97430.66;4871272;29;20061;-35
2021/08/04 09:13:02;;;;;;;3.20;2.00;;;18.60;69.80;;;18.47;56.87;97441.78;4871146;29;20470;-36
2021/08/04 09:15:35;;;;;;;4.70;2.03;;;18.70;70.20;;;18.60;56.08;97442.75;4870158;29;20224;-36
2021/08/04 09:18:13;;;;;;;3.40;2.22;;;18.90;68.70;;;18.69;56.20;97428.81;4871463;29;20048;-36
2021/08/04 09:20:51;;;;;;;6.13;2.33;;;19.00;68.70;;;18.68;54.32;97432.53;4872098;29;20067;-35
2021/08/04 09:23:27;;;;;;;2.65;2.13;;;19.00;65.80;;;18.68;55.20;97431.72;4871746;29;20061;-36
2021/08/04 09:26:16;;;;;;;2.67;2.10;;;18.80;67.80;;;18.63;53.79;97421.59;4869833;29;20356;-36
2021/08/04 09:29:02;;;;;;;4.05;2.47;;;18.80;66.90;;;18.74;55.42;97416.53;4870434;29;20364;-36
2021/08/04 09:31:53;;;;;;;3.67;2.20;;;18.90;67.20;;;18.86;55.58;97415.66;4871020;29;20061;-36
2021/08/04 09:34:39;;;;;;;4.03;2.45;;;19.20;66.70;;;18.91;54.30;97414.16;4869982;29;20063;-36
2021/08/04 09:37:09;;;;;;;3.47;2.35;;;19.20;66.30;;;18.99;54.45;97414.69;4870328;29;20064;-36
2021/08/04 09:39:46;;;;;;;2.45;1.98;;;19.20;67.20;;;19.04;54.15;97414.88;4870832;29;20232;-35
2021/08/04 09:42:14;;;;;;;2.25;1.92;;;19.40;67.50;;;19.13;54.58;97418.09;4871391;29;20048;-36
2021/08/04 09:44:57;;;;;;;3.03;2.13;;;19.50;67.50;;;19.22;54.78;97407.88;4884704;29;20049;-35
2021/08/04 09:47:26;;;;;;;2.63;1.98;;;19.60;65.80;;;19.28;54.59;97410.47;4870925;29;20274;-36
2021/08/04 09:49:57;;;;;;;3.42;2.83;;;19.60;66.80;;;19.39;54.66;97410.81;4870145;29;20053;-36
2021/08/04 09:52:26;;;;;;;5.15;2.92;;;19.80;66.70;;;19.48;54.54;97406.75;4871035;29;20052;-36
2021/08/04 09:54:55;;;;;;;3.58;2.30;;;19.90;67.00;;;19.55;54.25;97412.09;4872755;29;20269;-36
2021/08/04 09:57:52;;;;;;;4.25;2.25;;;19.90;66.80;;;19.52;52.78;97407.94;4872050;29;20210;-36
2021/08/04 10:00:22;;;;;;;3.50;1.90;;;19.80;63.10;;;19.53;53.11;97415.03;4868670;29;20065;-36
2021/08/04 10:02:52;;;;;;;3.80;2.75;;;19.70;65.60;;;19.56;53.21;97402.94;4870538;29;20071;-35
2021/08/04 10:05:20;;;;;;;3.05;2.30;;;19.80;65.60;;;19.59;53.38;97410.59;4883568;29;20052;-36
2021/08/04 10:08:11;;;;;;;2.95;2.33;;;19.80;65.50;;;19.57;52.75;97399.19;4870374;29;20063;-35
2021/08/04 10:10:51;;;;;;;2.88;1.90;;;19.70;62.60;;;19.54;52.51;97397.78;4873277;29;20059;-36
2021/08/04 10:13:29;;;;;;;3.60;2.92;;;19.60;65.40;;;19.52;51.89;97401.72;4874427;29;20499;-36
2021/08/04 10:15:59;;;;;;;3.38;2.08;;;19.60;63.60;;;19.54;52.38;97394.22;4874624;29;20067;-36
2021/08/04 10:18:39;;;;;;;4.35;2.03;;;19.60;65.10;;;19.60;53.02;97393.34;4873785;29;20063;-36
2021/08/04 10:21:12;;;;;;;3.45;2.10;;;19.80;65.20;;;19.64;52.62;97394.56;4872450;29;20266;-36
2021/08/04 10:23:46;;;;;;;4.90;2.08;;;19.90;64.60;;;19.65;52.43;97383.50;4874532;29;20279;-36
2021/08/04 10:26:15;;;;;;;2.95;2.28;;;19.90;64.50;;;19.70;53.21;97382.00;4888341;29;20049;-36
2021/08/04 10:28:44;;;;;;;3.22;2.05;;;19.90;65.60;;;19.76;53.43;97376.56;4874027;29;20065;-36
2021/08/04 10:31:16;;;;;;;3.60;3.05;;;20.10;65.70;;;19.84;53.25;97380.84;4874230;29;20055;-37
2021/08/04 10:33:44;;;;;;;4.53;2.38;;;20.20;65.60;;;19.91;53.57;97373.47;4873663;29;20385;-36
2021/08/04 10:36:15;;;;;;;3.38;2.50;;;20.30;65.70;;;19.97;53.21;97375.28;4874123;29;20053;-35